createdAt,value
2018-03-04T00:00:10.787Z,149.57
2018-03-04T00:02:37.019Z,136.02
2018-03-04T00:05:03.254Z,156.02
2018-03-04T00:07:29.471Z,139.98
2018-03-04T00:09:55.714Z,131.35
2018-03-04T00:12:21.970Z,141.48
2018-03-04T00:14:48.207Z,143.60
2018-03-04T00:17:14.484Z,141.05
2018-03-04T00:19:40.731Z,143.30
2018-03-04T00:22:06.952Z,144.62
2018-03-04T00:24:33.198Z,151.52
2018-03-04T00:26:59.435Z,153.95
2018-03-04T00:29:25.671Z,143.77
2018-03-04T00:31:51.919Z,154.70
2018-03-04T00:34:18.145Z,135.55
2018-03-04T00:36:44.739Z,127.22
2018-03-04T00:39:11.694Z,135.25
2018-03-04T00:41:37.909Z,145.52
2018-03-04T00:44:04.163Z,136.82
2018-03-04T00:46:30.390Z,152.87
2018-03-04T00:48:56.629Z,153.05
2018-03-04T00:51:22.848Z,159.55
2018-03-04T00:53:49.081Z,143.23
2018-03-04T00:56:15.292Z,152.00
2018-03-04T00:58:42.301Z,153.23
2018-03-04T01:01:08.514Z,163.98
2018-03-04T01:03:34.728Z,144.30
2018-03-04T01:06:01.715Z,155.73
2018-03-04T01:08:27.931Z,145.87
2018-03-04T01:10:54.955Z,162.82
2018-03-04T01:13:21.193Z,143.57
2018-03-04T01:15:47.432Z,149.07
2018-03-04T01:18:13.690Z,156.65
2018-03-04T01:20:39.907Z,144.48
2018-03-04T01:23:06.176Z,149.12
2018-03-04T01:25:33.135Z,141.37
2018-03-04T01:28:00.155Z,157.07
2018-03-04T01:30:26.366Z,159.12
2018-03-04T01:32:52.575Z,146.37
2018-03-04T01:35:19.555Z,163.27
2018-03-04T01:37:45.788Z,148.62
2018-03-04T01:40:12.020Z,162.05
2018-03-04T01:42:39.034Z,139.25
2018-03-04T01:45:05.238Z,162.82
2018-03-04T01:47:31.478Z,155.60
2018-03-04T01:49:57.676Z,166.82
2018-03-04T01:52:23.927Z,145.62
2018-03-04T01:54:50.886Z,155.02
2018-03-04T01:57:17.876Z,168.13
2018-03-04T01:59:44.091Z,164.50
2018-03-04T02:02:11.352Z,153.20
2018-03-04T02:04:38.315Z,179.27
2018-03-04T02:07:05.323Z,147.60
2018-03-04T02:09:31.567Z,155.95
2018-03-04T02:11:57.772Z,158.63
2018-03-04T02:14:23.987Z,152.98
2018-03-04T02:16:51.019Z,175.85
2018-03-04T02:19:17.251Z,157.93
2018-03-04T02:21:43.497Z,158.85
2018-03-04T02:24:09.737Z,145.32
2018-03-04T02:26:35.954Z,168.60
2018-03-04T02:29:02.199Z,175.80
2018-03-04T02:31:28.439Z,165.00
2018-03-04T02:33:54.640Z,161.05
2018-03-04T02:36:21.984Z,172.85
2018-03-04T02:38:48.203Z,151.77
2018-03-04T02:41:14.447Z,161.98
2018-03-04T02:43:40.683Z,172.70
2018-03-04T02:46:06.892Z,170.02
2018-03-04T02:48:33.127Z,150.50
2018-03-04T02:50:59.361Z,163.90
2018-03-04T02:53:25.604Z,167.80
2018-03-04T02:55:51.834Z,153.95
2018-03-04T02:58:18.811Z,152.70
2018-03-04T03:00:45.018Z,149.75
2018-03-04T03:03:11.963Z,168.87
2018-03-04T03:05:38.188Z,163.90
2018-03-04T03:08:04.416Z,176.43
2018-03-04T03:10:30.653Z,152.77
2018-03-04T03:12:56.877Z,157.88
2018-03-04T03:15:23.122Z,172.25
2018-03-04T03:17:49.385Z,164.88
2018-03-04T03:20:15.627Z,163.68
2018-03-04T03:22:41.859Z,167.27
2018-03-04T03:25:08.062Z,171.95
2018-03-04T03:27:34.301Z,147.60
2018-03-04T03:30:00.521Z,178.10
2018-03-04T03:32:27.489Z,160.27
2018-03-04T03:34:54.442Z,151.70
2018-03-04T03:37:21.412Z,150.77
2018-03-04T03:39:47.616Z,158.73
2018-03-04T03:42:13.830Z,172.23
2018-03-04T03:44:40.034Z,169.13
2018-03-04T03:47:06.248Z,152.57
2018-03-04T03:49:33.212Z,161.80
2018-03-04T03:52:00.196Z,161.90
2018-03-04T03:54:26.422Z,150.75
2018-03-04T03:56:52.652Z,144.50
2018-03-04T03:59:19.624Z,160.35
2018-03-04T04:01:45.851Z,174.75
2018-03-04T04:04:12.830Z,156.73
2018-03-04T04:06:39.042Z,175.98
2018-03-04T04:09:06.034Z,156.52
2018-03-04T04:11:32.267Z,177.40
2018-03-04T04:13:58.496Z,171.95
2018-03-04T04:16:24.791Z,154.93
2018-03-04T04:18:51.008Z,149.62
2018-03-04T04:21:17.871Z,144.48
2018-03-04T04:23:44.098Z,151.23
2018-03-04T04:26:10.349Z,154.70
2018-03-04T04:28:36.583Z,167.60
2018-03-04T04:31:02.818Z,168.37
2018-03-04T04:33:29.035Z,158.82
2018-03-04T04:35:55.243Z,163.25
2018-03-04T04:38:21.784Z,168.15
2018-03-04T04:40:47.998Z,155.45
2018-03-04T04:43:14.235Z,176.00
2018-03-04T04:45:40.462Z,178.43
2018-03-04T04:48:06.689Z,168.75
2018-03-04T04:50:32.919Z,183.75
2018-03-04T04:52:59.893Z,174.80
2018-03-04T04:55:26.105Z,159.20
2018-03-04T04:57:53.117Z,151.23
2018-03-04T05:00:19.339Z,154.73
2018-03-04T05:02:45.579Z,171.20
2018-03-04T05:05:11.798Z,171.20
2018-03-04T05:07:38.040Z,145.95
2018-03-04T05:10:04.270Z,162.07
2018-03-04T05:12:31.228Z,181.52
2018-03-04T05:14:58.193Z,178.50
2018-03-04T05:17:25.205Z,168.25
2018-03-04T05:19:51.427Z,175.40
2018-03-04T05:22:17.639Z,195.00
2018-03-04T05:24:43.911Z,157.07
2018-03-04T05:27:10.135Z,202.20
2018-03-04T05:29:36.361Z,150.52
2018-03-04T05:32:03.325Z,144.73
2018-03-04T05:34:29.535Z,142.23
2018-03-04T05:36:56.765Z,142.60
2018-03-04T05:39:22.961Z,140.77
2018-03-04T05:41:49.189Z,145.82
2018-03-04T05:44:15.404Z,131.60
2018-03-04T05:46:41.645Z,134.95
2018-03-04T05:49:07.884Z,138.73
2018-03-04T05:51:34.922Z,127.22
2018-03-04T05:54:01.483Z,127.43
2018-03-04T05:56:27.699Z,137.62
2018-03-04T05:58:53.926Z,128.62
2018-03-04T06:01:20.162Z,157.68
2018-03-04T06:03:46.384Z,152.40
2018-03-04T06:06:13.365Z,141.88
2018-03-04T06:08:39.586Z,139.02
2018-03-04T06:11:06.106Z,137.65
2018-03-04T06:13:32.316Z,145.35
2018-03-04T06:15:58.580Z,149.23
2018-03-04T06:18:24.803Z,165.68
2018-03-04T06:20:51.032Z,166.57
2018-03-04T06:23:17.258Z,166.88
2018-03-04T06:25:43.498Z,169.35
2018-03-04T06:28:09.720Z,162.75
2018-03-04T06:30:35.961Z,166.95
2018-03-04T06:33:02.202Z,151.35
2018-03-04T06:35:28.819Z,168.00
2018-03-04T06:37:55.779Z,178.30
2018-03-04T06:40:22.740Z,164.62
2018-03-04T06:42:48.923Z,184.85
2018-03-04T06:45:15.154Z,163.20
2018-03-04T06:47:41.385Z,186.82
2018-03-04T06:50:07.603Z,176.05
2018-03-04T06:52:34.580Z,186.25
2018-03-04T06:55:00.824Z,183.48
2018-03-04T06:57:27.082Z,172.05
2018-03-04T06:59:53.321Z,185.12
2018-03-04T07:02:19.546Z,170.23
2018-03-04T07:04:45.792Z,170.27
2018-03-04T07:07:12.020Z,177.27
2018-03-04T07:09:38.283Z,168.75
2018-03-04T07:12:04.520Z,173.55
2018-03-04T07:14:30.741Z,171.07
2018-03-04T07:16:57.055Z,178.75
2018-03-04T07:19:23.285Z,193.90
2018-03-04T07:21:49.554Z,162.95
2018-03-04T07:24:16.559Z,183.57
2018-03-04T07:26:42.801Z,182.88
2018-03-04T07:29:09.051Z,162.20
2018-03-04T07:31:35.281Z,183.30
2018-03-04T07:34:01.550Z,172.50
2018-03-04T07:36:27.813Z,155.75
2018-03-04T07:38:54.802Z,195.38
2018-03-04T07:41:21.027Z,163.50
2018-03-04T07:43:48.019Z,168.52
2018-03-04T07:46:14.235Z,161.82
2018-03-04T07:48:40.472Z,158.95
2018-03-04T07:51:06.686Z,174.18
2018-03-04T07:53:33.739Z,147.85
2018-03-04T07:55:59.979Z,155.43
2018-03-04T07:58:26.219Z,151.43
2018-03-04T08:00:52.451Z,160.35
2018-03-04T08:03:18.686Z,155.73
2018-03-04T08:05:44.941Z,146.73
2018-03-04T08:08:11.181Z,159.23
2018-03-04T08:10:37.370Z,157.15
2018-03-04T08:13:03.609Z,159.57
2018-03-04T08:15:29.853Z,161.52
2018-03-04T08:17:56.079Z,165.85
2018-03-04T08:20:22.303Z,176.52
2018-03-04T08:22:49.290Z,174.18
2018-03-04T08:25:27.852Z,155.20
2018-03-04T08:28:06.526Z,156.37
2018-03-04T08:30:32.744Z,183.80
2018-03-04T08:32:58.954Z,175.95
2018-03-04T08:35:25.182Z,164.98
2018-03-04T08:37:51.423Z,161.43
2018-03-04T08:40:17.736Z,153.62
2018-03-04T08:42:43.924Z,147.68
2018-03-04T08:45:10.200Z,150.85
2018-03-04T08:47:37.173Z,156.85
2018-03-04T08:50:03.403Z,154.30
2018-03-04T08:52:30.368Z,169.40
2018-03-04T08:54:56.618Z,169.20
2018-03-04T08:57:22.890Z,164.25
2018-03-04T08:59:49.119Z,154.77
2018-03-04T09:02:15.343Z,155.60
2018-03-04T09:04:41.595Z,144.85
2018-03-04T09:07:07.816Z,145.15
2018-03-04T09:09:34.089Z,143.15
2018-03-04T09:12:00.284Z,139.75
2018-03-04T09:14:27.257Z,155.68
2018-03-04T09:16:53.494Z,153.32
2018-03-04T09:19:19.723Z,136.75
2018-03-04T09:21:46.719Z,138.60
2018-03-04T09:24:12.951Z,132.60
2018-03-04T09:26:39.169Z,120.05
2018-03-04T09:29:05.407Z,123.82
2018-03-04T09:31:31.644Z,112.28
2018-03-04T09:33:58.994Z,116.28
2018-03-04T09:36:25.988Z,128.48
2018-03-04T09:38:52.226Z,115.53
2018-03-04T09:41:18.464Z,128.62
2018-03-04T09:43:44.696Z,119.10
2018-03-04T09:46:10.966Z,125.40
2018-03-04T09:48:37.184Z,110.20
2018-03-04T09:51:03.431Z,119.25
2018-03-04T09:53:29.692Z,109.03
2018-03-04T09:55:55.944Z,110.75
2018-03-04T09:58:22.225Z,122.95
2018-03-04T10:00:49.224Z,108.70
2018-03-04T10:03:15.437Z,116.47
2018-03-04T10:05:41.680Z,112.47
2018-03-04T10:08:08.204Z,112.00
2018-03-04T10:10:34.432Z,118.00
2018-03-04T10:13:00.683Z,120.72
2018-03-04T10:15:26.915Z,116.40
2018-03-04T10:17:53.135Z,110.75
2018-03-04T10:20:19.404Z,107.63
2018-03-04T10:22:45.621Z,97.40
2018-03-04T10:25:11.866Z,143.62
2018-03-04T10:27:38.101Z,206.00
2018-03-04T10:30:04.327Z,224.82
2018-03-04T10:32:30.572Z,150.23
2018-03-04T10:34:57.550Z,128.90
2018-03-04T10:37:23.787Z,112.70
2018-03-04T10:39:50.023Z,116.00
2018-03-04T10:42:16.235Z,89.65
2018-03-04T10:44:42.494Z,86.40
2018-03-04T10:47:08.737Z,93.35
2018-03-04T10:49:35.008Z,97.03
2018-03-04T10:52:02.012Z,100.93
2018-03-04T10:54:28.252Z,102.07
2018-03-04T10:56:54.507Z,99.00
2018-03-04T10:59:20.746Z,105.63
2018-03-04T11:01:47.853Z,99.95
2018-03-04T11:04:14.848Z,99.60
2018-03-04T11:06:41.099Z,91.85
2018-03-04T11:09:07.395Z,92.60
2018-03-04T11:11:34.426Z,98.87
2018-03-04T11:14:00.638Z,92.55
2018-03-04T11:16:26.861Z,98.07
2018-03-04T11:18:53.085Z,94.05
2018-03-04T11:21:19.322Z,94.10
2018-03-04T11:23:45.563Z,99.40
2018-03-04T11:26:11.793Z,91.65
2018-03-04T11:28:38.767Z,91.45
2018-03-04T11:31:05.012Z,86.75
2018-03-04T11:33:31.254Z,90.80
2018-03-04T11:35:57.486Z,97.30
2018-03-04T11:38:23.731Z,94.28
2018-03-04T11:40:49.970Z,89.47
2018-03-04T11:43:16.218Z,93.80
2018-03-04T11:45:42.465Z,93.25
2018-03-04T11:48:08.721Z,93.55
2018-03-04T11:50:35.718Z,87.65
2018-03-04T11:53:01.977Z,82.00
2018-03-04T11:55:29.329Z,88.30
2018-03-04T11:57:56.324Z,80.85
2018-03-04T12:00:22.567Z,80.60
2018-03-04T12:02:48.801Z,80.93
2018-03-04T12:05:15.025Z,79.30
2018-03-04T12:07:41.312Z,82.57
2018-03-04T12:10:07.577Z,76.77
2018-03-04T12:12:33.854Z,80.67
2018-03-04T12:15:00.110Z,75.27
2018-03-04T12:17:26.315Z,77.10
2018-03-04T12:19:52.616Z,74.83
2018-03-04T12:22:18.874Z,66.07
2018-03-04T12:24:45.367Z,72.60
2018-03-04T12:27:11.591Z,64.97
2018-03-04T12:29:38.571Z,73.40
2018-03-04T12:32:04.822Z,63.20
2018-03-04T12:34:31.072Z,67.60
2018-03-04T12:36:57.335Z,64.73
2018-03-04T12:39:23.583Z,63.30
2018-03-04T12:41:49.813Z,71.83
2018-03-04T12:44:16.055Z,65.53
2018-03-04T12:46:42.287Z,63.53
2018-03-04T12:49:08.549Z,67.57
2018-03-04T12:51:34.771Z,67.43
2018-03-04T12:54:01.051Z,69.50
2018-03-04T12:56:28.023Z,64.27
2018-03-04T12:58:55.009Z,66.10
2018-03-04T13:01:22.096Z,66.77
2018-03-04T13:03:48.309Z,67.80
2018-03-04T13:06:14.584Z,59.10
2018-03-04T13:08:40.817Z,66.63
2018-03-04T13:11:07.046Z,70.37
2018-03-04T13:13:33.310Z,73.53
2018-03-04T13:15:59.878Z,61.73
2018-03-04T13:18:26.160Z,64.97
2018-03-04T13:20:52.464Z,63.33
2018-03-04T13:23:19.444Z,61.30
2018-03-04T13:25:45.716Z,64.43
2018-03-04T13:28:12.077Z,72.17
2018-03-04T13:30:38.292Z,71.60
2018-03-04T13:33:04.594Z,69.70
2018-03-04T13:35:30.848Z,68.20
2018-03-04T13:37:57.822Z,58.07
2018-03-04T13:40:24.066Z,62.30
2018-03-04T13:42:50.302Z,74.27
2018-03-04T13:45:16.920Z,65.07
2018-03-04T13:47:43.885Z,63.50
2018-03-04T13:50:10.848Z,70.77
2018-03-04T13:52:37.812Z,71.63
2018-03-04T13:55:04.098Z,78.37
2018-03-04T13:57:30.355Z,73.17
2018-03-04T13:59:56.571Z,74.73
2018-03-04T14:02:22.828Z,79.27
2018-03-04T14:04:49.058Z,81.00
2018-03-04T14:07:15.292Z,84.27
2018-03-04T14:09:41.553Z,79.23
2018-03-04T14:12:07.763Z,84.53
2018-03-04T14:14:34.012Z,88.97
2018-03-04T14:17:00.209Z,87.67
2018-03-04T14:19:27.178Z,88.03
2018-03-04T14:21:53.400Z,85.17
2018-03-04T14:24:19.918Z,87.47
2018-03-04T14:26:46.152Z,96.27
2018-03-04T14:29:12.371Z,93.53
2018-03-04T14:31:38.635Z,89.60
2018-03-04T14:34:04.862Z,91.33
2018-03-04T14:36:31.107Z,88.80
2018-03-04T14:38:57.410Z,110.63
2018-03-04T14:41:23.679Z,96.93
2018-03-04T14:43:49.926Z,96.27
2018-03-04T14:46:16.175Z,91.23
2018-03-04T14:48:42.410Z,86.83
2018-03-04T14:51:11.511Z,94.17
2018-03-04T14:53:39.176Z,90.83
2018-03-04T14:56:05.432Z,84.87
2018-03-04T14:58:31.674Z,79.20
2018-03-04T15:00:58.188Z,77.60
2018-03-04T15:03:25.305Z,86.87
2018-03-04T15:05:51.816Z,87.60
2018-03-04T15:08:18.038Z,84.33
2018-03-04T15:10:44.302Z,88.30
2018-03-04T15:13:10.677Z,90.60
2018-03-04T15:15:36.913Z,90.83
2018-03-04T15:18:03.261Z,88.47
2018-03-04T15:20:29.489Z,94.93
2018-03-04T15:22:55.725Z,94.07
2018-03-04T15:25:21.992Z,88.33
2018-03-04T15:27:48.245Z,89.80
2018-03-04T15:30:15.257Z,82.20
2018-03-04T15:32:41.538Z,90.10
2018-03-04T15:35:07.809Z,87.07
2018-03-04T15:37:34.101Z,92.13
2018-03-04T15:40:00.311Z,86.67
2018-03-04T15:42:26.560Z,84.47
2018-03-04T15:44:52.813Z,87.33
2018-03-04T15:47:19.059Z,89.10
2018-03-04T15:49:45.277Z,94.23
2018-03-04T15:52:11.519Z,92.13
2018-03-04T15:54:37.779Z,91.40
2018-03-04T15:57:04.014Z,83.67
2018-03-04T15:59:30.265Z,100.13
2018-03-04T16:01:56.525Z,101.10
2018-03-04T16:04:23.538Z,90.03
2018-03-04T16:06:49.789Z,96.63
2018-03-04T16:09:16.344Z,108.17
2018-03-04T16:11:42.642Z,84.60
2018-03-04T16:14:09.728Z,103.50
2018-03-04T16:16:36.024Z,97.30
2018-03-04T16:19:02.340Z,98.80
2018-03-04T16:21:29.407Z,84.37
2018-03-04T16:23:55.648Z,102.75
2018-03-04T16:26:21.939Z,97.18
2018-03-04T16:28:48.196Z,96.53
2018-03-04T16:31:14.472Z,94.95
2018-03-04T16:33:40.745Z,104.75
2018-03-04T16:36:07.024Z,106.55
2018-03-04T16:38:33.324Z,105.05
2018-03-04T16:41:00.312Z,111.22
2018-03-04T16:43:26.917Z,109.28
2018-03-04T16:45:53.158Z,111.45
2018-03-04T16:48:19.404Z,107.25
2018-03-04T16:50:46.391Z,110.32
2018-03-04T16:53:12.668Z,120.60
2018-03-04T16:55:38.938Z,120.70
2018-03-04T16:58:05.168Z,101.57
2018-03-04T17:00:31.425Z,125.07
2018-03-04T17:02:58.380Z,113.68
2018-03-04T17:05:25.430Z,117.28
2018-03-04T17:07:51.719Z,122.05
2018-03-04T17:10:17.997Z,134.70
2018-03-04T17:12:44.278Z,120.62
2018-03-04T17:15:10.537Z,122.62
2018-03-04T17:17:43.811Z,120.25
2018-03-04T17:20:10.828Z,117.30
2018-03-04T17:22:37.129Z,141.27
2018-03-04T17:25:03.487Z,122.50
2018-03-04T17:27:30.117Z,123.50
2018-03-04T17:29:57.103Z,125.95
2018-03-04T17:32:23.423Z,129.82
2018-03-04T17:34:49.711Z,134.95
2018-03-04T17:37:16.076Z,127.00
2018-03-04T17:39:42.329Z,121.68
2018-03-04T17:42:09.453Z,121.72
2018-03-04T17:44:36.032Z,126.10
2018-03-04T17:47:02.369Z,147.13
2018-03-04T17:49:28.645Z,150.52
2018-03-04T17:51:54.961Z,121.62
2018-03-04T17:54:22.021Z,134.15
2018-03-04T17:56:48.350Z,132.80
2018-03-04T17:59:14.615Z,131.35
2018-03-04T18:01:41.641Z,127.70
2018-03-04T18:04:07.967Z,130.23
2018-03-04T18:06:34.265Z,120.03
2018-03-04T18:09:01.311Z,114.07
2018-03-04T18:11:28.322Z,125.57
2018-03-04T18:13:54.647Z,116.22
2018-03-04T18:16:20.928Z,121.20
2018-03-04T18:18:47.227Z,140.70
2018-03-04T18:21:13.577Z,116.18
2018-03-04T18:23:39.839Z,126.97
2018-03-04T18:26:06.455Z,119.93
2018-03-04T18:28:32.768Z,114.07
2018-03-04T18:30:59.074Z,114.68
2018-03-04T18:33:25.412Z,113.82
2018-03-04T18:35:51.743Z,120.07
2018-03-04T18:38:18.055Z,117.60
2018-03-04T18:40:45.109Z,110.22
2018-03-04T18:43:12.160Z,114.40
2018-03-04T18:45:40.380Z,128.00
2018-03-04T18:48:06.728Z,113.12
2018-03-04T18:50:33.119Z,122.28
2018-03-04T18:52:59.446Z,119.10
2018-03-04T18:55:26.640Z,108.68
2018-03-04T18:57:52.943Z,109.15
2018-03-04T19:00:19.324Z,107.22
2018-03-04T19:02:46.364Z,110.18
2018-03-04T19:05:13.715Z,106.97
2018-03-04T19:07:41.254Z,100.70
2018-03-04T19:10:07.616Z,111.72
2018-03-04T19:12:35.099Z,116.28
2018-03-04T19:15:01.507Z,104.78
2018-03-04T19:17:28.010Z,99.93
2018-03-04T19:19:54.654Z,96.97
2018-03-04T19:22:21.256Z,96.50
2018-03-04T19:24:47.606Z,112.32
2018-03-04T19:27:13.906Z,95.82
2018-03-04T19:29:40.232Z,106.63
2018-03-04T19:32:06.640Z,103.03
2018-03-04T19:34:32.961Z,102.57
2018-03-04T19:36:59.284Z,98.12
2018-03-04T19:39:26.662Z,106.87
2018-03-04T19:41:53.726Z,110.50
2018-03-04T19:44:21.879Z,98.03
2018-03-04T19:46:49.239Z,111.60
2018-03-04T19:49:15.948Z,114.30
2018-03-04T19:51:43.168Z,106.35
2018-03-04T19:54:09.785Z,100.03
2018-03-04T19:56:36.468Z,104.82
2018-03-04T19:59:02.756Z,104.97
2018-03-04T20:01:29.701Z,115.20
2018-03-04T20:03:55.991Z,102.82
2018-03-04T20:06:22.463Z,103.30
2018-03-04T20:08:49.630Z,112.75
2018-03-04T20:11:16.994Z,92.20
2018-03-04T20:13:43.495Z,119.05
2018-03-04T20:16:09.865Z,109.37
2018-03-04T20:18:37.596Z,98.75
2018-03-04T20:21:04.903Z,102.25
2018-03-04T20:23:31.279Z,107.53
2018-03-04T20:25:58.443Z,101.87
2018-03-04T20:28:25.455Z,104.47
2018-03-04T20:30:51.787Z,103.22
2018-03-04T20:33:18.098Z,108.15
2018-03-04T20:35:44.405Z,130.37
2018-03-04T20:38:10.714Z,118.10
2018-03-04T20:40:37.013Z,106.78
2018-03-04T20:43:04.076Z,114.45
2018-03-04T20:45:31.117Z,128.48
2018-03-04T20:47:57.395Z,121.15
2018-03-04T20:50:23.694Z,113.50
2018-03-04T20:52:51.239Z,115.50
2018-03-04T20:55:17.575Z,102.85
2018-03-04T20:57:44.932Z,110.25
2018-03-04T21:00:11.726Z,92.53
2018-03-04T21:02:38.319Z,128.15
2018-03-04T21:05:04.645Z,114.80
2018-03-04T21:07:30.918Z,100.78
2018-03-04T21:09:57.229Z,107.22
2018-03-04T21:12:23.474Z,102.65
2018-03-04T21:14:51.141Z,114.28
2018-03-04T21:17:18.176Z,119.10
2018-03-04T21:19:44.754Z,112.35
2018-03-04T21:22:12.887Z,101.30
2018-03-04T21:24:39.245Z,92.00
2018-03-04T21:27:05.556Z,98.93
2018-03-04T21:29:31.829Z,111.03
2018-03-04T21:31:59.548Z,108.03
2018-03-04T21:34:25.837Z,125.10
2018-03-04T21:36:52.123Z,107.65
2018-03-04T21:39:19.132Z,114.62
2018-03-04T21:41:45.398Z,106.45
2018-03-04T21:44:11.642Z,129.07
2018-03-04T21:46:38.278Z,124.72
2018-03-04T21:49:04.523Z,120.72
2018-03-04T21:51:30.752Z,127.45
2018-03-04T21:53:59.719Z,114.95
2018-03-04T21:56:26.796Z,117.15
2018-03-04T21:58:53.017Z,125.82
2018-03-04T22:01:19.227Z,114.10
2018-03-04T22:03:46.192Z,122.95
2018-03-04T22:06:13.170Z,120.13
2018-03-04T22:08:39.432Z,121.43
2018-03-04T22:11:05.654Z,125.72
2018-03-04T22:13:31.898Z,112.97
2018-03-04T22:15:58.221Z,104.45
2018-03-04T22:18:25.201Z,118.28
2018-03-04T22:20:51.454Z,116.65
2018-03-04T22:23:17.694Z,109.00
2018-03-04T22:25:43.934Z,119.53
2018-03-04T22:28:10.180Z,109.78
2018-03-04T22:30:36.392Z,121.35
2018-03-04T22:33:02.620Z,127.07
2018-03-04T22:35:29.595Z,124.38
2018-03-04T22:37:56.109Z,131.05
2018-03-04T22:40:23.107Z,125.85
2018-03-04T22:42:49.311Z,119.40
2018-03-04T22:45:16.282Z,124.57
2018-03-04T22:47:43.254Z,124.35
2018-03-04T22:50:09.473Z,117.15
2018-03-04T22:52:36.432Z,112.22
2018-03-04T22:55:02.729Z,136.68
2018-03-04T22:57:28.938Z,121.95
2018-03-04T22:59:55.189Z,109.30
2018-03-04T23:02:21.434Z,119.32
2018-03-04T23:04:47.669Z,111.28
2018-03-04T23:07:13.883Z,108.90
2018-03-04T23:09:40.105Z,130.40
2018-03-04T23:12:07.101Z,120.65
2018-03-04T23:14:33.372Z,131.90
2018-03-04T23:16:59.592Z,141.98
2018-03-04T23:19:25.807Z,136.10
2018-03-04T23:21:52.028Z,126.57
2018-03-04T23:24:18.992Z,149.00
2018-03-04T23:26:45.954Z,125.72
2018-03-04T23:29:12.904Z,128.55
2018-03-04T23:31:39.966Z,142.23
2018-03-04T23:34:06.916Z,114.18
2018-03-04T23:36:33.876Z,145.60
2018-03-04T23:39:00.850Z,151.77
2018-03-04T23:41:27.079Z,153.95
2018-03-04T23:43:54.083Z,133.98
2018-03-04T23:46:20.302Z,132.32
2018-03-04T23:48:46.532Z,140.57
2018-03-04T23:51:12.742Z,125.53
2018-03-04T23:53:39.748Z,136.45
2018-03-04T23:56:05.972Z,124.32
2018-03-04T23:58:32.194Z,127.22
